Time;durP1;ratioP1;P1;durP2;ratioP2;P2;SDS_P1;SDS_P2;PMS_P1;PMS_P2;Temp;Humidity;BMP_temperature;BMP_pressure;BME280_temperature;BME280_humidity;BME280_pressure;Samples;Min_cycle;Max_cycle;Signal;HPM_P1;HPM_P2
2022/05/10 00:02:14;;;;;;;16.30;9.40;;;;;;;2.61;100.00;100218.08;1821307;78;20874;-69
2022/05/10 00:04:43;;;;;;;12.53;8.33;;;;;;;2.66;100.00;100222.31;1821389;78;21805;-72
2022/05/10 00:07:09;;;;;;;12.80;7.28;;;;;;;2.66;100.00;100225.78;1786619;78;20980;-72
2022/05/10 00:09:36;;;;;;;18.15;7.35;;;;;;;2.61;100.00;100217.56;1821052;78;20843;-70
2022/05/10 00:12:07;;;;;;;23.22;12.35;;;;;;;2.50;100.00;100215.38;1821010;78;20874;-70
2022/05/10 00:14:34;;;;;;;26.17;12.03;;;;;;;2.35;100.00;100219.36;1821643;78;21411;-69
2022/05/10 00:17:01;;;;;;;43.70;19.05;;;;;;;2.23;100.00;100219.03;1820983;78;21260;-72
2022/05/10 00:19:30;;;;;;;44.53;20.17;;;;;;;2.11;100.00;100217.84;1821146;78;20918;-69
2022/05/10 00:21:58;;;;;;;41.20;20.27;;;;;;;2.05;100.00;100212.75;1821218;78;20996;-70
2022/05/10 00:24:24;;;;;;;38.47;21.03;;;;;;;2.01;100.00;100215.94;1821221;78;20941;-71
2022/05/10 00:26:54;;;;;;;28.42;16.90;;;;;;;1.97;100.00;100212.84;1821266;78;20905;-68
2022/05/10 00:29:23;;;;;;;34.27;17.42;;;;;;;1.97;100.00;100212.84;1821514;78;21187;-70
2022/05/10 00:31:49;;;;;;;44.42;19.85;;;;;;;1.90;100.00;100215.38;1821063;78;21443;-71
2022/05/10 00:34:17;;;;;;;46.73;24.15;;;;;;;1.86;100.00;100210.16;1786250;78;21400;-72
2022/05/10 00:36:44;;;;;;;43.28;20.70;;;;;;;1.79;100.00;100209.70;1820898;78;20909;-70
2022/05/10 00:39:12;;;;;;;50.78;21.57;;;;;;;1.74;100.00;100211.59;1821124;78;20972;-72
2022/05/10 00:42:05;;;;;;;50.80;22.13;;;;;;;1.69;100.00;100207.31;1821752;78;22024;-70
2022/05/10 00:44:42;;;;;;;42.88;19.52;;;;;;;1.62;100.00;100211.20;1820898;78;20826;-69
2022/05/10 00:47:32;;;;;;;44.67;20.35;;;;;;;1.52;100.00;100211.11;1821216;78;20874;-69
2022/05/10 00:50:16;;;;;;;25.90;13.35;;;;;;;1.42;100.00;100205.59;1820990;78;20910;-70
2022/05/10 00:52:57;;;;;;;22.75;11.08;;;;;;;1.37;100.00;100210.59;1821078;78;20890;-70
2022/05/10 00:55:35;;;;;;;16.65;10.70;;;;;;;1.44;100.00;100210.17;1738026;80;21287;-71
2022/05/10 00:58:17;;;;;;;18.77;10.58;;;;;;;1.53;100.00;100210.13;1738325;82;20913;-71
2022/05/10 01:00:43;;;;;;;12.30;8.80;;;;;;;1.58;100.00;100215.70;1737338;82;21442;-69
2022/05/10 01:03:18;;;;;;;14.25;9.55;;;;;;;1.60;100.00;100215.03;1738188;82;20944;-71
2022/05/10 01:05:57;;;;;;;15.15;9.05;;;;;;;1.62;100.00;100212.52;1738264;82;20956;-73
2022/05/10 01:08:28;;;;;;;15.18;7.42;;;;;;;1.64;100.00;100210.52;1738115;82;21109;-73
2022/05/10 01:11:13;;;;;;;10.28;7.70;;;;;;;1.60;100.00;100214.52;1737942;82;21490;-71
2022/05/10 01:13:51;;;;;;;9.40;7.62;;;;;;;1.55;100.00;100214.74;1738350;82;20967;-70
2022/05/10 01:16:21;;;;;;;19.23;9.65;;;;;;;1.54;100.00;100210.44;1738644;82;21007;-70
2022/05/10 01:18:48;;;;;;;14.33;9.48;;;;;;;1.49;100.00;100209.64;1738551;82;20893;-71
2022/05/10 01:21:30;;;;;;;22.98;10.98;;;;;;;1.46;100.00;100208.69;1738410;82;21552;-73
2022/05/10 01:24:29;;;;;;;14.23;9.48;;;;;;;1.43;100.00;100206.41;1738543;82;20922;-70
2022/05/10 01:27:27;;;;;;;10.93;8.18;;;;;;;1.38;100.00;100212.22;1738313;82;21137;-72
2022/05/10 01:30:05;;;;;;;11.38;8.88;;;;;;;1.37;100.00;100210.59;1738382;82;20948;-71
2022/05/10 01:35:52;;;;;;;22.87;9.43;;;;;;;1.34;100.00;100204.81;1821213;78;21222;-70
2022/05/10 01:38:42;;;;;;;28.10;12.30;;;;;;;1.41;100.00;100208.40;1821373;78;20957;-71
2022/05/10 01:41:34;;;;;;;23.30;11.38;;;;;;;1.43;100.00;100205.08;1821502;78;20890;-74
2022/05/10 01:44:24;;;;;;;29.45;12.43;;;;;;;1.43;100.00;100197.96;1821180;78;20957;-72
2022/05/10 01:46:54;;;;;;;26.25;12.23;;;;;;;1.40;100.00;100197.51;1821713;78;20917;-71
2022/05/10 01:49:50;;;;;;;19.85;10.48;;;;;;;1.29;100.00;100199.55;1821225;78;21251;-73
2022/05/10 01:52:31;;;;;;;19.80;9.68;;;;;;;1.20;100.00;100206.40;1821242;78;20913;-73
2022/05/10 01:55:06;;;;;;;14.50;9.35;;;;;;;1.06;100.00;100200.89;1800686;78;21045;-72
2022/05/10 01:57:37;;;;;;;27.87;11.57;;;;;;;0.97;100.00;100198.47;1821162;78;20890;-70
2022/05/10 02:00:14;;;;;;;21.80;12.45;;;;;;;0.94;100.00;100203.61;1821172;78;21443;-72
2022/05/10 02:02:51;;;;;;;25.90;11.60;;;;;;;0.83;100.00;100198.72;1821494;78;21125;-70
2022/05/10 02:05:29;;;;;;;25.55;13.25;;;;;;;0.72;100.00;100193.34;1820294;78;20972;-73
2022/05/10 02:08:01;;;;;;;20.08;11.83;;;;;;;0.62;100.00;100197.52;1817799;78;21566;-71
2022/05/10 02:10:36;;;;;;;20.27;10.53;;;;;;;0.68;100.00;100201.78;1821006;78;20925;-70
2022/05/10 02:13:11;;;;;;;19.37;10.45;;;;;;;0.70;100.00;100193.19;1821528;78;20913;-71
2022/05/10 02:15:46;;;;;;;26.02;11.68;;;;;;;0.68;100.00;100197.82;1821167;78;21245;-73
2022/05/10 02:18:37;;;;;;;30.43;12.68;;;;;;;0.66;100.00;100199.30;1821111;78;21424;-72
2022/05/10 02:21:31;;;;;;;16.12;9.73;;;;;;;0.54;100.00;100199.36;1821371;78;20874;-71
2022/05/10 02:24:09;;;;;;;20.60;10.95;;;;;;;0.41;100.00;100203.38;1820122;78;20926;-71
2022/05/10 02:26:47;;;;;;;18.87;11.50;;;;;;;0.35;100.00;100200.63;1821465;78;21597;-70
2022/05/10 02:29:35;;;;;;;21.52;11.33;;;;;;;0.38;100.00;100198.95;1821273;78;21232;-70
2022/05/10 02:35:10;;;;;;;22.17;10.32;;;;;;;0.57;100.00;100193.25;1821455;78;20874;-72
2022/05/10 02:37:37;;;;;;;15.45;10.23;;;;;;;0.55;100.00;100195.23;1821065;78;21010;-72
2022/05/10 02:40:06;;;;;;;16.40;10.03;;;;;;;0.55;100.00;100200.52;1821523;78;20870;-72
2022/05/10 02:42:33;;;;;;;20.08;11.85;;;;;;;0.62;100.00;100196.70;1821143;78;21140;-73
2022/05/10 02:45:02;;;;;;;18.10;11.20;;;;;;;0.69;100.00;100195.02;1821208;78;20886;-69
2022/05/10 02:47:39;;;;;;;23.42;12.53;;;;;;;0.76;100.00;100196.44;1820991;78;20957;-69
2022/05/10 02:50:23;;;;;;;21.95;13.18;;;;;;;0.77;100.00;100200.24;1820987;78;20913;-73
2022/05/10 02:52:51;;;;;;;32.83;19.52;;;;;;;0.74;100.00;100206.39;1816881;78;20997;-70
2022/05/10 02:55:22;;;;;;;37.10;23.00;;;;;;;0.78;100.00;100199.23;1821170;78;21195;-71
2022/05/10 02:57:51;;;;;;;30.40;22.45;;;;;;;0.86;100.00;100201.03;1821039;78;20961;-71
2022/05/10 03:00:19;;;;;;;36.30;23.38;;;;;;;0.95;100.00;100199.14;1821206;78;21080;-72
2022/05/10 03:02:49;;;;;;;32.90;24.35;;;;;;;1.00;100.00;100198.94;1821089;78;20957;-70
2022/05/10 03:05:16;;;;;;;27.55;21.35;;;;;;;1.07;100.00;100199.06;1821190;78;20878;-72
2022/05/10 03:07:42;;;;;;;28.52;18.30;;;;;;;1.15;100.00;100207.43;1821119;78;21426;-72
2022/05/10 03:10:10;;;;;;;22.17;15.58;;;;;;;1.24;100.00;100203.23;1821067;78;21530;-73
2022/05/10 03:12:37;;;;;;;30.73;17.97;;;;;;;1.35;100.00;100204.66;1821380;78;20831;-70
2022/05/10 03:15:06;;;;;;;26.05;16.50;;;;;;;1.46;100.00;100201.56;1821060;78;21404;-73
2022/05/10 03:17:33;;;;;;;26.62;18.60;;;;;;;1.58;100.00;100204.61;1821187;78;20901;-72
2022/05/10 03:19:59;;;;;;;21.85;15.88;;;;;;;1.71;100.00;100208.80;1821408;78;21184;-72
2022/05/10 03:22:26;;;;;;;27.30;16.75;;;;;;;1.89;100.00;100200.52;1821281;78;20905;-73
2022/05/10 03:24:53;;;;;;;28.20;18.02;;;;;;;2.09;100.00;100208.74;1821063;78;20866;-73
2022/05/10 03:27:19;;;;;;;21.80;17.10;;;;;;;2.29;100.00;100207.69;1821357;78;20973;-72
2022/05/10 03:29:46;;;;;;;33.08;18.30;;;;;;;2.46;100.00;100200.36;1821193;78;20910;-73
2022/05/10 03:32:13;;;;;;;32.67;18.10;;;;;;;2.61;100.00;100204.31;1821136;78;21184;-72
2022/05/10 03:34:54;;;;;;;29.70;16.27;;;;;;;2.76;100.00;100201.62;1821230;78;21484;-72
2022/05/10 03:37:22;;;;;;;20.15;10.48;;;;;;;3.00;100.00;100203.93;1821050;78;21455;-73
2022/05/10 03:39:49;;;;;;;21.77;9.30;;;;;;;3.30;100.00;100204.31;1821363;78;20921;-71
2022/05/10 03:42:15;;;;;;;16.07;8.98;;;;;;;3.59;100.00;100205.48;1821185;78;20866;-73
2022/05/10 03:44:42;;;;;;;25.68;11.90;;;;;;;3.82;100.00;100203.94;1787577;78;21042;-73
2022/05/10 03:47:09;;;;;;;13.08;8.68;;;;;;;4.05;100.00;100208.98;1820931;78;21486;-72
2022/05/10 03:49:37;;;;;;;12.10;8.03;;;;;;;4.36;100.00;100213.05;1821363;78;20874;-70
2022/05/10 03:52:06;;;;;;;11.08;8.15;;;;;;;4.55;100.00;100212.81;1821603;78;20902;-71
2022/05/10 03:54:33;;;;;;;12.98;9.10;;;;;;;4.61;100.00;100208.56;1821352;78;20866;-72
2022/05/10 03:57:00;;;;;;;15.18;8.78;;;;;;;4.73;100.00;100209.63;1821431;78;21240;-73
2022/05/10 03:59:27;;;;;;;17.23;9.45;;;;;;;4.89;100.00;100212.43;1821127;78;20906;-73
2022/05/10 04:01:53;;;;;;;16.25;9.10;;;;;;;5.08;100.00;100212.18;1821385;78;20914;-72
2022/05/10 04:04:20;;;;;;;17.42;8.83;;;;;;;5.29;100.00;100212.02;1821107;78;21545;-74
2022/05/10 04:06:46;;;;;;;19.70;8.38;;;;;;;5.53;100.00;100213.77;1821140;78;21380;-71
2022/05/10 04:09:16;;;;;;;23.25;9.38;;;;;;;5.82;100.00;100220.52;1821226;78;21178;-71
2022/05/10 04:11:44;;;;;;;15.72;8.83;;;;;;;6.18;100.00;100224.09;1821175;78;20858;-70
2022/05/10 04:14:11;;;;;;;16.57;10.10;;;;;;;6.43;98.08;100228.22;1785869;78;20969;-70
2022/05/10 04:16:38;;;;;;;18.75;12.80;;;;;;;6.63;82.73;100229.48;1821327;78;20956;-73
2022/05/10 04:19:05;;;;;;;24.70;12.80;;;;;;;6.79;79.10;100237.55;1821236;78;20878;-70
2022/05/10 04:21:34;;;;;;;20.85;12.23;;;;;;;7.03;80.97;100235.99;1821184;78;21395;-70
2022/05/10 04:24:04;;;;;;;24.15;13.98;;;;;;;7.31;77.32;100237.47;1821171;78;20914;-73
2022/05/10 04:26:32;;;;;;;31.55;15.23;;;;;;;7.48;71.19;100235.91;1821118;78;20902;-73
2022/05/10 04:29:00;;;;;;;20.55;13.03;;;;;;;7.64;70.84;100237.23;1821161;78;21519;-71
2022/05/10 04:31:27;;;;;;;28.83;14.87;;;;;;;7.75;67.54;100237.04;1821229;78;21024;-72
2022/05/10 04:33:54;;;;;;;24.25;15.93;;;;;;;7.78;66.79;100237.93;1786079;78;21014;-71
2022/05/10 04:36:23;;;;;;;25.80;16.95;;;;;;;7.98;66.41;100236.41;1821005;78;20874;-71
2022/05/10 04:38:51;;;;;;;38.63;19.98;;;;;;;8.12;61.34;100236.59;1788210;78;20918;-72
2022/05/10 04:41:30;;;;;;;22.65;16.17;;;;;;;8.24;59.48;100242.03;1821042;78;20961;-71
2022/05/10 04:44:08;;;;;;;25.88;16.35;;;;;;;8.41;60.93;100238.81;1821169;78;21014;-70
2022/05/10 04:46:39;;;;;;;28.42;16.55;;;;;;;8.66;60.28;100242.75;1821231;78;21428;-72
2022/05/10 04:49:07;;;;;;;37.93;19.70;;;;;;;8.90;58.66;100237.00;1821147;78;20862;-72
2022/05/10 04:51:35;;;;;;;29.45;18.02;;;;;;;9.12;55.82;100238.66;1821754;78;20925;-71
2022/05/10 04:54:02;;;;;;;34.30;18.80;;;;;;;9.27;54.08;100239.05;1821146;78;21424;-72
2022/05/10 04:56:29;;;;;;;35.63;20.85;;;;;;;9.49;54.24;100242.56;1821510;78;20953;-72
2022/05/10 04:58:56;;;;;;;31.70;19.52;;;;;;;9.68;53.46;100238.75;1821433;78;21109;-74
2022/05/10 05:01:27;;;;;;;28.15;18.17;;;;;;;9.87;52.25;100237.61;1821234;78;20894;-70
2022/05/10 05:03:59;;;;;;;39.30;18.73;;;;;;;9.98;51.15;100241.86;1821199;78;20834;-70
2022/05/10 05:06:24;;;;;;;37.00;21.65;;;;;;;10.18;50.64;100242.31;1819675;78;20839;-71
2022/05/10 05:08:51;;;;;;;39.35;20.92;;;;;;;10.29;50.81;100244.22;1821367;78;20957;-69
2022/05/10 05:11:18;;;;;;;25.08;17.17;;;;;;;10.31;49.85;100243.97;1821213;78;21133;-70
2022/05/10 05:13:45;;;;;;;34.08;18.90;;;;;;;10.48;50.80;100252.95;1787237;78;20985;-68
2022/05/10 05:16:11;;;;;;;35.15;21.42;;;;;;;10.78;49.67;100244.40;1821306;78;21506;-69
2022/05/10 05:18:38;;;;;;;30.25;17.25;;;;;;;11.10;50.76;100250.96;1821297;78;21512;-70
2022/05/10 05:21:05;;;;;;;27.67;16.55;;;;;;;11.45;47.98;100249.97;1821226;78;20910;-68
2022/05/10 05:23:32;;;;;;;24.23;15.35;;;;;;;11.78;46.15;100255.08;1821245;78;21268;-72
2022/05/10 05:25:59;;;;;;;26.82;17.12;;;;;;;11.99;44.26;100257.59;1786676;78;20972;-69
2022/05/10 05:28:25;;;;;;;28.80;17.77;;;;;;;11.90;43.83;100253.15;1821122;78;20919;-71
2022/05/10 05:30:52;;;;;;;36.08;21.15;;;;;;;11.78;44.12;100255.91;1821133;78;20930;-68
2022/05/10 05:33:18;;;;;;;40.23;23.07;;;;;;;11.93;44.28;100251.33;1821479;78;21482;-70
2022/05/10 05:35:46;;;;;;;36.75;20.95;;;;;;;12.17;43.54;100254.63;1787953;78;21307;-70
2022/05/10 05:38:12;;;;;;;38.50;21.68;;;;;;;12.44;42.33;100252.58;1821403;78;20866;-70
2022/05/10 05:40:40;;;;;;;36.20;23.10;;;;;;;12.60;40.55;100260.34;1821400;78;20874;-73
2022/05/10 05:43:08;;;;;;;33.33;21.50;;;;;;;12.68;40.24;100257.20;1821339;78;21000;-70
2022/05/10 05:45:37;;;;;;;41.05;25.72;;;;;;;12.68;39.71;100257.20;1786662;78;20906;-70
2022/05/10 05:48:07;;;;;;;33.10;21.93;;;;;;;12.74;38.88;100250.83;1820636;78;21330;-70
2022/05/10 05:50:34;;;;;;;25.05;16.52;;;;;;;12.90;39.22;100248.31;1821551;78;20881;-71
2022/05/10 05:53:01;;;;;;;34.27;21.73;;;;;;;13.08;37.26;100246.10;1821513;78;21016;-69
2022/05/10 05:55:29;;;;;;;38.67;24.87;;;;;;;13.44;36.77;100249.16;1821472;78;20871;-69
2022/05/10 05:58:02;;;;;;;57.43;31.30;;;;;;;13.63;37.11;100255.55;1814372;78;20934;-70
2022/05/10 06:00:26;;;;;;;58.15;35.20;;;;;;;13.74;37.67;100255.89;1819511;78;21310;-67
2022/05/10 06:02:55;;;;;;;51.20;33.23;;;;;;;13.87;37.86;100253.31;1820844;78;20858;-68
2022/05/10 06:05:24;;;;;;;47.78;33.25;;;;;;;13.96;36.24;100254.98;1820914;78;20965;-68
2022/05/10 06:07:53;;;;;;;52.90;33.05;;;;;;;14.18;35.17;100259.72;1820811;78;21439;-69
2022/05/10 06:10:21;;;;;;;57.70;38.15;;;;;;;14.37;34.83;100258.77;1820978;78;20925;-69
2022/05/10 06:12:49;;;;;;;38.78;24.98;;;;;;;14.47;35.35;100256.11;1820927;78;21150;-70
2022/05/10 06:15:19;;;;;;;45.35;30.97;;;;;;;14.36;33.07;100252.55;1820724;78;21456;-71
2022/05/10 06:17:50;;;;;;;45.40;27.60;;;;;;;14.48;33.50;100252.36;1820664;78;20918;-67
2022/05/10 06:20:20;;;;;;;43.13;27.02;;;;;;;14.51;33.13;100251.82;1820721;78;20934;-69
2022/05/10 06:22:49;;;;;;;39.95;25.35;;;;;;;14.43;33.17;100245.58;1788008;78;21012;-70
2022/05/10 06:25:18;;;;;;;;;;;;;;;14.67;32.99;100245.97;1823457;78;21246;-70
2022/05/10 06:27:47;;;;;;;36.48;23.47;;;;;;;14.74;32.93;100248.44;1820919;78;20078;-68
2022/05/10 06:30:15;;;;;;;27.20;16.65;;;;;;;15.56;31.37;100244.03;1821278;78;20965;-68
2022/05/10 06:32:42;;;;;;;20.52;12.45;;;;;;;15.56;31.37;100244.03;1820927;78;20957;-68
2022/05/10 06:35:10;;;;;;;20.20;13.43;;;;;;;15.70;31.51;100248.92;1820932;78;20870;-69
2022/05/10 06:40:23;;;;;;;12.63;9.43;;;;;;;15.75;30.61;100246.22;1820822;78;20894;-69
2022/05/10 06:42:52;;;;;;;11.57;6.45;;;;;;;16.15;30.89;100248.63;1820805;78;20913;-68
2022/05/10 06:45:21;;;;;;;8.15;5.00;;;;;;;15.87;27.67;100245.40;1819701;78;21000;-68
2022/05/10 06:47:50;;;;;;;9.98;5.62;;;;;;;15.54;27.96;100236.72;1820802;78;20980;-68
2022/05/10 06:50:20;;;;;;;7.17;5.03;;;;;;;14.99;29.31;100232.32;1820951;78;21192;-67
2022/05/10 06:52:51;;;;;;;10.18;6.35;;;;;;;14.76;29.52;100236.28;1820554;78;20925;-69
2022/05/10 06:55:18;;;;;;;8.83;5.87;;;;;;;15.09;29.53;100241.52;1786285;78;21501;-68
2022/05/10 06:57:45;;;;;;;10.28;5.80;;;;;;;15.16;29.14;100240.20;1820950;78;20937;-65
2022/05/10 07:00:14;;;;;;;10.75;5.37;;;;;;;15.01;29.08;100240.95;1820682;78;20956;-69
2022/05/10 07:02:42;;;;;;;9.33;5.78;;;;;;;15.37;28.79;100236.97;1821086;78;21236;-69
2022/05/10 07:05:10;;;;;;;9.45;5.70;;;;;;;15.55;28.83;100219.94;1785932;78;21459;-69
2022/05/10 07:07:38;;;;;;;5.67;3.65;;;;;;;15.85;29.10;100232.16;1787171;78;21004;-68
2022/05/10 07:10:11;;;;;;;6.33;3.77;;;;;;;15.80;28.75;100223.20;1821017;78;21412;-67
2022/05/10 07:12:41;;;;;;;5.30;3.75;;;;;;;16.06;28.33;100225.34;1821170;78;21059;-68
2022/05/10 07:15:11;;;;;;;14.00;3.05;;;;;;;15.90;28.48;100218.33;1821223;78;21111;-67
2022/05/10 07:17:40;;;;;;;4.70;3.35;;;;;;;15.75;27.64;100220.50;1813803;78;20933;-69
2022/05/10 07:20:10;;;;;;;4.90;3.70;;;;;;;15.56;28.45;100220.23;1820993;78;21565;-66
2022/05/10 07:22:38;;;;;;;4.90;3.33;;;;;;;15.64;28.08;100220.48;1820770;78;21361;-70
2022/05/10 07:25:06;;;;;;;;;;;;;;;15.76;28.11;100216.73;1823616;78;20842;-68
2022/05/10 07:27:36;;;;;;;5.17;3.05;;;;;;;15.93;28.39;100215.09;1821104;78;21128;-66
2022/05/10 07:30:04;;;;;;;4.25;2.45;;;;;;;15.70;28.74;100208.33;1820765;78;20997;-66
2022/05/10 07:32:32;;;;;;;21.93;3.65;;;;;;;15.90;28.19;100203.44;1820740;78;20918;-67
2022/05/10 07:35:02;;;;;;;10.07;3.53;;;;;;;16.31;27.65;100196.02;1821104;78;21467;-68
2022/05/10 07:37:30;;;;;;;5.58;3.45;;;;;;;16.50;27.68;100192.98;1821159;78;21001;-66
2022/05/10 07:39:57;;;;;;;5.15;3.47;;;;;;;15.84;27.52;100199.38;1820777;78;21890;-68
2022/05/10 07:42:26;;;;;;;8.08;3.80;;;;;;;15.91;28.09;100193.70;1821044;78;20866;-67
2022/05/10 07:44:54;;;;;;;3.05;2.72;;;;;;;16.15;27.35;100189.05;1820832;78;20909;-68
2022/05/10 07:47:21;;;;;;;9.37;5.03;;;;;;;15.74;26.94;100190.48;1820820;78;20922;-68
2022/05/10 07:49:49;;;;;;;5.20;3.55;;;;;;;15.63;27.97;100190.46;1820955;78;21016;-67
2022/05/10 07:52:16;;;;;;;3.08;2.67;;;;;;;15.83;27.64;100183.44;1821124;78;21166;-67
2022/05/10 07:54:43;;;;;;;9.07;5.40;;;;;;;16.15;28.73;100179.58;1820954;78;20897;-69
2022/05/10 07:57:10;;;;;;;4.20;3.53;;;;;;;15.92;27.99;100181.77;1820914;78;20992;-70
2022/05/10 07:59:39;;;;;;;4.03;3.07;;;;;;;15.87;27.96;100170.95;1821007;78;20921;-66
2022/05/10 08:02:09;;;;;;;9.20;5.15;;;;;;;15.87;27.96;100170.95;1788096;78;21641;-67
2022/05/10 08:04:37;;;;;;;13.80;3.35;;;;;;;16.28;28.41;100164.89;1820824;78;21172;-66
2022/05/10 08:07:04;;;;;;;4.28;2.75;;;;;;;16.28;27.14;100174.37;1787151;78;21453;-65
2022/05/10 08:09:33;;;;;;;7.95;3.83;;;;;;;16.45;26.78;100171.33;1820793;78;20972;-65
2022/05/10 08:12:00;;;;;;;6.67;2.72;;;;;;;16.36;27.32;100165.41;1820647;78;20956;-67
2022/05/10 08:14:27;;;;;;;4.83;1.90;;;;;;;16.02;26.80;100166.89;1821076;78;20871;-67
2022/05/10 08:16:56;;;;;;;8.38;2.30;;;;;;;15.85;27.28;100163.67;1820708;78;21243;-66
2022/05/10 08:19:24;;;;;;;3.83;3.00;;;;;;;16.05;26.84;100161.45;1785793;78;25577;-68
2022/05/10 08:21:56;;;;;;;7.33;2.75;;;;;;;16.35;28.24;100161.08;1820861;78;20953;-66
2022/05/10 08:24:23;;;;;;;3.67;2.72;;;;;;;16.22;27.17;100157.88;1820340;78;20956;-66
2022/05/10 08:26:50;;;;;;;3.95;2.20;;;;;;;16.11;27.03;100148.16;1820633;78;20922;-66
2022/05/10 08:29:18;;;;;;;5.08;2.83;;;;;;;16.42;27.31;100157.53;1791366;78;41629;-66
2022/05/10 08:31:46;;;;;;;5.78;3.72;;;;;;;16.79;27.31;100145.45;1788469;80;20878;-67
2022/05/10 08:34:13;;;;;;;4.25;2.45;;;;;;;17.26;28.20;100152.16;1788621;80;20987;-68
2022/05/10 08:36:41;;;;;;;4.70;2.90;;;;;;;16.96;26.16;100149.14;1788663;80;21517;-68
2022/05/10 08:39:10;;;;;;;3.27;2.52;;;;;;;16.91;26.31;100149.43;1788607;80;20963;-68
2022/05/10 08:41:49;;;;;;;4.87;1.90;;;;;;;16.86;25.94;100141.88;1788517;80;21262;-68
2022/05/10 08:44:18;;;;;;;4.95;2.30;;;;;;;16.98;25.79;100142.86;1787908;80;20912;-67
2022/05/10 08:46:57;;;;;;;7.70;3.25;;;;;;;17.12;25.02;100128.94;1788360;80;20916;-67
2022/05/10 08:49:40;;;;;;;6.25;3.20;;;;;;;16.85;25.88;100131.56;1788716;80;20983;-69
2022/05/10 08:52:07;;;;;;;4.10;2.35;;;;;;;16.70;26.46;100137.05;1788575;80;21402;-67
2022/05/10 08:54:38;;;;;;;3.27;2.30;;;;;;;16.74;26.48;100127.28;1788208;80;22030;-67
2022/05/10 08:57:19;;;;;;;6.20;2.52;;;;;;;16.91;25.93;100125.03;1755753;80;20996;-67
2022/05/10 09:00:08;;;;;;;3.30;2.70;;;;;;;17.17;25.38;100126.18;1779724;80;20889;-64
2022/05/10 09:02:54;;;;;;;5.97;2.80;;;;;;;17.36;25.54;100121.68;1749734;80;20933;-69
2022/05/10 09:05:29;;;;;;;2.75;2.30;;;;;;;16.98;25.55;100118.46;1779785;80;20938;-67
2022/05/10 09:08:47;;;;;;;4.97;2.83;;;;;;;16.57;26.03;100113.30;1779507;80;21401;-68
2022/05/10 09:11:17;;;;;;;5.15;2.45;;;;;;;16.90;26.29;100105.80;1660200;86;21549;-67
2022/05/10 09:13:45;;;;;;;5.40;3.08;;;;;;;17.06;25.91;100107.83;1669211;86;21082;-67
2022/05/10 09:16:13;;;;;;;4.72;2.50;;;;;;;17.28;25.86;100108.73;1667131;86;21046;-67
2022/05/10 09:18:49;;;;;;;6.87;2.10;;;;;;;17.42;26.04;100103.47;1666905;86;21043;-65
2022/05/10 09:21:28;;;;;;;4.78;2.52;;;;;;;17.67;25.04;100107.83;1666960;86;21662;-67
2022/05/10 09:24:22;;;;;;;3.87;2.17;;;;;;;17.66;23.96;100106.75;1666993;86;21611;-66
2022/05/10 09:26:55;;;;;;;3.95;2.33;;;;;;;17.92;24.18;100100.53;1666052;86;21011;-66
2022/05/10 09:29:34;;;;;;;3.72;2.40;;;;;;;17.86;23.38;100097.60;1669644;86;20931;-66
2022/05/10 09:35:25;;;;;;;7.25;3.85;;;;;;;17.52;24.27;100095.78;1647043;86;21335;-65
2022/05/10 09:38:09;;;;;;;10.38;3.45;;;;;;;17.55;24.91;100081.08;1678249;85;20849;-64
2022/05/10 09:40:46;;;;;;;4.10;2.58;;;;;;;17.31;25.58;100085.09;1676120;85;21636;-66
2022/05/10 09:43:23;;;;;;;4.72;3.10;;;;;;;17.18;25.01;100072.21;1675008;85;20999;-68
2022/05/10 09:46:14;;;;;;;2.85;2.02;;;;;;;16.91;25.20;100072.16;1695670;83;20960;-66
2022/05/10 09:48:42;;;;;;;4.17;2.30;;;;;;;17.16;24.70;100071.68;1695814;84;21393;-68
2022/05/10 09:51:36;;;;;;;14.05;3.12;;;;;;;17.52;24.93;100070.80;1701694;84;20940;-67
2022/05/10 09:54:14;;;;;;;8.85;3.20;;;;;;;17.90;24.43;100057.36;1701803;84;20921;-67
2022/05/10 09:56:43;;;;;;;5.47;2.70;;;;;;;17.96;25.41;100058.94;1701425;84;21033;-67
2022/05/10 09:59:24;;;;;;;3.90;2.27;;;;;;;18.03;23.92;100054.52;1701723;84;21004;-68
2022/05/10 10:01:58;;;;;;;4.85;2.17;;;;;;;17.74;26.04;100050.48;1701729;84;22171;-67
2022/05/10 10:04:35;;;;;;;9.48;4.03;;;;;;;17.48;25.23;100037.18;1680795;84;20917;-67
2022/05/10 10:07:20;;;;;;;7.07;3.17;;;;;;;17.66;25.85;100049.19;1701560;84;21001;-68
2022/05/10 10:09:51;;;;;;;3.92;3.10;;;;;;;18.03;25.04;100049.08;1701701;84;21040;-67
2022/05/10 10:12:40;;;;;;;4.35;2.85;;;;;;;17.87;24.44;100051.72;1701511;84;20968;-67
2022/05/10 10:15:31;;;;;;;4.95;2.72;;;;;;;18.08;25.37;100047.66;1701991;84;21163;-67
2022/05/10 10:18:03;;;;;;;5.30;2.17;;;;;;;18.17;24.01;100051.31;1700964;84;20917;-64
2022/05/10 10:20:41;;;;;;;5.95;2.75;;;;;;;17.65;25.06;100050.30;1707155;84;21050;-65
2022/05/10 10:23:36;;;;;;;4.90;2.92;;;;;;;18.03;24.59;100045.01;1701529;84;21013;-65
2022/05/10 10:26:39;;;;;;;2.75;1.87;;;;;;;18.52;24.96;100039.71;1701878;84;20905;-67
2022/05/10 10:29:33;;;;;;;3.92;1.90;;;;;;;18.49;24.92;100034.84;1585218;89;21295;-64
2022/05/10 10:32:10;;;;;;;5.80;1.92;;;;;;;18.60;24.09;100029.52;1585315;89;21042;-68
2022/05/10 10:35:00;;;;;;;5.05;1.80;;;;;;;18.62;23.53;100037.39;1585732;89;20982;-68
2022/05/10 10:37:54;;;;;;;4.35;2.42;;;;;;;18.38;24.84;100032.03;1606408;89;20979;-66
2022/05/10 10:40:39;;;;;;;4.22;2.62;;;;;;;18.42;24.71;100027.08;1606628;89;21552;-67
2022/05/10 10:43:28;;;;;;;2.83;2.20;;;;;;;18.42;24.28;100022.17;1606615;89;21943;-68
2022/05/10 10:46:05;;;;;;;5.72;2.30;;;;;;;18.53;24.53;100013.33;1606388;89;20950;-66
2022/05/10 10:48:51;;;;;;;3.37;1.62;;;;;;;18.66;25.29;100010.41;1606506;89;20983;-65
2022/05/10 10:51:22;;;;;;;3.58;2.10;;;;;;;18.92;25.01;100007.55;1581235;90;21102;-67
2022/05/10 10:53:50;;;;;;;3.60;2.12;;;;;;;18.09;25.56;100003.08;1556242;90;21051;-67
2022/05/10 10:56:42;;;;;;;7.15;3.15;;;;;;;17.72;26.11;99992.39;1556128;90;21361;-67
2022/05/10 10:59:48;;;;;;;6.28;2.67;;;;;;;17.65;25.46;99981.64;1581244;90;21072;-65
2022/05/10 11:02:54;;;;;;;3.25;2.30;;;;;;;18.11;25.04;99994.65;1581255;90;21015;-67
2022/05/10 11:05:54;;;;;;;5.83;2.10;;;;;;;18.39;24.74;99980.64;1562070;90;21123;-69
2022/05/10 11:08:55;;;;;;;5.60;2.20;;;;;;;18.47;24.22;99982.71;1578893;90;21095;-70
2022/05/10 11:11:47;;;;;;;5.75;2.15;;;;;;;18.85;23.92;99975.86;1579426;90;21288;-66
2022/05/10 11:14:42;;;;;;;3.40;2.02;;;;;;;18.30;23.66;99978.33;1579291;90;21018;-68
2022/05/10 11:17:39;;;;;;;3.02;1.57;;;;;;;18.10;25.02;99974.80;1579171;90;21505;-66
2022/05/10 11:20:53;;;;;;;3.47;2.17;;;;;;;18.55;24.31;99962.20;1559534;90;21094;-66
2022/05/10 11:23:48;;;;;;;3.45;1.77;;;;;;;18.82;24.07;99962.86;1579316;90;21070;-67
2022/05/10 11:26:58;;;;;;;6.50;2.55;;;;;;;18.72;23.58;99958.94;1579430;90;21143;-66
2022/05/10 11:29:53;;;;;;;2.72;2.00;;;;;;;18.74;24.12;99945.82;1593929;90;21020;-65
2022/05/10 11:33:02;;;;;;;9.93;2.20;;;;;;;18.78;23.43;99945.52;1584634;90;21067;-63
2022/05/10 11:36:25;;;;;;;6.67;2.77;;;;;;;18.35;23.75;99938.31;1595264;90;20987;-64
2022/05/10 11:39:08;;;;;;;2.33;2.08;;;;;;;18.26;23.54;99940.64;1595416;90;20972;-67
2022/05/10 11:41:53;;;;;;;5.72;2.02;;;;;;;18.13;24.69;99938.13;1665721;84;21169;-69
2022/05/10 11:44:48;;;;;;;8.85;2.90;;;;;;;18.29;24.79;99935.97;1701211;83;20928;-66
2022/05/10 11:47:45;;;;;;;15.98;2.58;;;;;;;18.64;23.63;99936.76;1701489;84;21463;-69
2022/05/10 11:54:16;;;;;;;5.15;2.25;;;;;;;18.49;24.17;99930.75;1701463;84;20877;-68
2022/05/10 11:56:45;;;;;;;7.35;2.30;;;;;;;18.45;24.49;99916.97;1701873;84;21855;-69
2022/05/10 11:59:28;;;;;;;3.12;2.05;;;;;;;18.62;24.57;99927.28;1668770;84;21499;-70
2022/05/10 12:01:56;;;;;;;1.85;1.40;;;;;;;18.14;23.66;99916.08;1701567;84;21423;-70
2022/05/10 12:04:45;;;;;;;4.12;2.10;;;;;;;17.58;24.21;99916.84;1701830;84;20964;-67
2022/05/10 12:07:28;;;;;;;4.60;2.08;;;;;;;17.71;24.64;99909.87;1701930;84;20989;-67
2022/05/10 12:10:10;;;;;;;6.85;2.50;;;;;;;17.77;24.77;99901.37;1701467;84;21201;-66